Time;durP1;ratioP1;P1;durP2;ratioP2;P2;SDS_P1;SDS_P2;PMS_P1;PMS_P2;Temp;Humidity;BMP_temperature;BMP_pressure;BME280_temperature;BME280_humidity;BME280_pressure;Samples;Min_cycle;Max_cycle;Signal;HPM_P1;HPM_P2
2022/03/02 00:00:57;;;;;;;4.03;1.80;;;;;;;12.26;84.67;101141.53;2064518;28;20602;-78
2022/03/02 00:02:21;;;;;;;6.00;1.55;;;;;;;12.24;84.42;101138.84;2068167;28;20046;-77
2022/03/02 00:03:44;;;;;;;2.92;1.50;;;;;;;12.22;84.55;101139.69;2063898;28;20050;-77
2022/03/02 00:05:07;;;;;;;3.53;1.60;;;;;;;12.18;84.62;101137.88;2066334;28;20409;-77
2022/03/02 00:06:29;;;;;;;4.22;1.80;;;;;;;12.14;84.52;101128.13;2063713;28;20100;-77
2022/03/02 00:07:52;;;;;;;3.15;1.45;;;;;;;12.11;84.50;101126.28;2067204;28;20050;-77
2022/03/02 00:09:15;;;;;;;3.83;1.63;;;;;;;12.06;84.46;101132.38;2061363;28;20046;-77
2022/03/02 00:10:37;;;;;;;3.00;1.65;;;;;;;12.04;84.52;101132.34;2069400;28;20134;-78
2022/03/02 00:11:59;;;;;;;2.47;1.48;;;;;;;12.05;84.51;101131.50;2070510;28;20410;-78
2022/03/02 00:13:21;;;;;;;4.10;1.80;;;;;;;12.05;84.49;101122.66;2058602;28;20058;-78
2022/03/02 00:14:44;;;;;;;3.28;1.60;;;;;;;12.05;84.42;101122.66;2067026;28;20053;-78
2022/03/02 00:16:07;;;;;;;4.00;1.98;;;;;;;12.01;84.48;101120.84;2066251;28;20100;-78
2022/03/02 00:17:30;;;;;;;7.95;5.35;;;;;;;12.03;84.57;101127.03;2069652;28;20080;-78
2022/03/02 00:18:54;;;;;;;5.57;3.28;;;;;;;12.03;84.70;101122.63;2066604;28;20140;-77
2022/03/02 00:20:17;;;;;;;9.45;5.28;;;;;;;12.07;84.80;101121.84;2077424;28;20057;-77
2022/03/02 00:21:40;;;;;;;3.70;1.65;;;;;;;12.07;84.79;101110.34;2072356;28;20046;-77
2022/03/02 00:23:02;;;;;;;4.75;1.60;;;;;;;12.08;84.80;101112.16;2069750;28;20507;-77
2022/03/02 00:24:25;;;;;;;3.10;1.42;;;;;;;12.07;84.76;101107.72;2061570;28;20050;-78
2022/03/02 00:25:47;;;;;;;3.33;1.70;;;;;;;12.08;84.77;101106.84;2067129;28;20050;-78
2022/03/02 00:27:10;;;;;;;3.03;1.45;;;;;;;12.11;84.75;101094.53;2069136;28;20369;-78
2022/03/02 00:28:33;;;;;;;3.80;1.90;;;;;;;12.11;84.70;101089.25;2069066;28;20148;-77
2022/03/02 00:29:54;;;;;;;4.25;1.85;;;;;;;12.10;84.63;101084.81;2069668;28;20096;-78
2022/03/02 00:31:16;;;;;;;2.40;1.30;;;;;;;12.06;84.63;101082.13;2069384;28;20065;-77
2022/03/02 00:32:40;;;;;;;4.45;1.83;;;;;;;12.08;84.69;101078.59;2064063;28;20046;-78
2022/03/02 00:34:02;;;;;;;4.93;1.50;;;;;;;12.08;84.74;101083.03;2061748;28;20409;-77
2022/03/02 00:35:25;;;;;;;3.97;1.65;;;;;;;12.10;84.72;101086.56;2066586;28;20084;-78
2022/03/02 00:36:47;;;;;;;4.95;1.77;;;;;;;12.10;84.66;101081.28;2069575;28;20054;-77
2022/03/02 00:38:11;;;;;;;3.25;1.50;;;;;;;12.10;84.77;101076.88;2064403;28;20095;-78
2022/03/02 00:39:33;;;;;;;2.80;1.83;;;;;;;12.11;84.70;101080.41;2067016;28;20050;-77
2022/03/02 00:40:56;;;;;;;3.42;2.17;;;;;;;12.08;84.56;101085.69;2063493;28;20495;-78
2022/03/02 00:42:19;;;;;;;3.35;1.58;;;;;;;12.04;84.52;101086.47;2061662;28;20050;-78
2022/03/02 00:43:41;;;;;;;3.72;1.90;;;;;;;11.97;84.44;101081.09;2056174;28;20128;-78
2022/03/02 00:45:04;;;;;;;3.60;1.58;;;;;;;11.97;84.47;101086.41;2066991;28;20065;-77
2022/03/02 00:46:29;;;;;;;5.05;1.63;;;;;;;11.98;84.42;101082.88;2055864;28;20445;-78
2022/03/02 00:47:54;;;;;;;3.58;1.80;;;;;;;12.02;84.37;101080.28;2051444;28;20083;-78
2022/03/02 00:49:16;;;;;;;2.72;1.40;;;;;;;11.98;84.35;101079.34;2059144;28;20057;-77
2022/03/02 00:50:39;;;;;;;4.13;1.80;;;;;;;11.96;84.42;101079.31;2061491;28;20650;-77
2022/03/02 00:52:02;;;;;;;3.95;1.83;;;;;;;11.94;84.51;101078.44;2061662;28;20038;-78
2022/03/02 00:53:25;;;;;;;2.55;1.30;;;;;;;11.94;84.58;101081.06;2062456;28;20047;-78
2022/03/02 00:54:48;;;;;;;3.30;1.83;;;;;;;11.94;84.63;101067.84;2066244;28;20108;-78
2022/03/02 00:56:11;;;;;;;4.55;1.77;;;;;;;11.98;84.76;101071.41;2069489;28;20053;-78
2022/03/02 00:57:34;;;;;;;5.10;1.92;;;;;;;11.99;84.88;101057.31;2069447;28;20049;-77
2022/03/02 00:58:56;;;;;;;3.35;1.63;;;;;;;12.01;85.04;101057.34;2058604;28;20500;-78
2022/03/02 01:00:19;;;;;;;4.00;2.15;;;;;;;12.04;85.00;101060.03;2052351;28;20089;-77
2022/03/02 01:01:41;;;;;;;4.43;2.17;;;;;;;12.02;85.00;101056.44;2061724;28;20085;-78
2022/03/02 01:03:05;;;;;;;2.60;1.40;;;;;;;12.01;84.94;101049.41;2063446;28;20444;-78
2022/03/02 01:04:28;;;;;;;4.22;1.73;;;;;;;11.96;84.89;101042.28;2069186;28;20107;-78
2022/03/02 01:05:51;;;;;;;6.00;1.55;;;;;;;11.96;84.88;101039.63;2069125;28;20042;-78
2022/03/02 01:07:14;;;;;;;3.50;1.80;;;;;;;11.97;84.80;101037.88;2060417;28;20408;-77
2022/03/02 01:08:35;;;;;;;4.00;1.75;;;;;;;11.97;84.89;101038.78;2060648;28;20050;-77
2022/03/02 01:09:58;;;;;;;3.45;1.65;;;;;;;12.00;84.84;101042.34;2070087;28;20454;-77
2022/03/02 01:11:19;;;;;;;3.03;1.38;;;;;;;11.98;84.71;101031.72;2065624;28;20113;-77
2022/03/02 01:12:42;;;;;;;3.00;1.73;;;;;;;12.00;84.80;101024.72;2055089;28;20049;-78
2022/03/02 01:14:05;;;;;;;3.78;1.88;;;;;;;12.03;84.68;101011.50;2068587;28;20455;-78
2022/03/02 01:15:27;;;;;;;4.40;1.90;;;;;;;12.03;84.57;101011.50;2057996;28;20089;-78
2022/03/02 01:16:50;;;;;;;4.97;2.28;;;;;;;12.05;84.62;101007.13;2063565;28;20046;-78
2022/03/02 01:18:13;;;;;;;5.25;2.40;;;;;;;12.06;84.58;100997.44;2062864;28;20058;-77
2022/03/02 01:19:37;;;;;;;5.53;2.00;;;;;;;12.05;84.71;101004.50;2068017;28;20145;-77
2022/03/02 01:20:59;;;;;;;5.60;2.88;;;;;;;11.94;84.90;101000.81;2070974;28;20104;-77
2022/03/02 01:22:22;;;;;;;4.72;1.98;;;;;;;12.05;85.00;101003.59;2070945;28;20049;-78
2022/03/02 01:23:43;;;;;;;10.75;5.45;;;;;;;12.06;85.13;101000.09;2067986;28;20085;-77
2022/03/02 01:25:09;;;;;;;5.40;2.85;;;;;;;12.07;85.13;100994.81;2062921;28;20073;-77
2022/03/02 01:26:31;;;;;;;6.13;3.30;;;;;;;12.02;85.13;100982.38;2075367;28;20140;-77
2022/03/02 01:27:53;;;;;;;10.65;6.63;;;;;;;12.02;85.16;100980.63;2054624;28;20076;-77
2022/03/02 01:29:15;;;;;;;12.80;7.18;;;;;;;12.01;85.35;100973.56;2060219;28;20096;-77
2022/03/02 01:30:36;;;;;;;12.32;7.07;;;;;;;11.99;85.52;100975.31;2066060;28;20050;-77
2022/03/02 01:31:59;;;;;;;15.25;7.22;;;;;;;11.93;85.37;100973.47;2069702;28;20049;-77
2022/03/02 01:33:22;;;;;;;15.88;8.40;;;;;;;11.77;85.87;100963.53;2054707;28;20114;-78
2022/03/02 01:34:44;;;;;;;28.05;14.07;;;;;;;12.02;85.97;100963.84;2046782;28;20055;-78
2022/03/02 01:36:07;;;;;;;9.82;4.75;;;;;;;12.01;86.00;100967.41;2049768;28;20524;-77
2022/03/02 01:37:28;;;;;;;8.35;4.43;;;;;;;12.06;85.95;100963.03;2060092;28;20053;-78
2022/03/02 01:38:51;;;;;;;7.22;4.03;;;;;;;12.10;86.00;100959.56;2063955;28;20053;-77
2022/03/02 01:40:14;;;;;;;9.57;4.75;;;;;;;12.14;85.86;100964.03;2063340;28;20606;-76
2022/03/02 01:41:37;;;;;;;23.02;11.00;;;;;;;12.11;85.83;100961.34;2062781;28;20643;-77
2022/03/02 01:42:58;;;;;;;16.48;7.43;;;;;;;12.10;85.85;100959.56;2055293;28;20505;-77
2022/03/02 01:44:21;;;;;;;13.98;6.90;;;;;;;12.11;85.89;100961.34;2051665;28;20051;-77
2022/03/02 01:45:44;;;;;;;8.93;5.00;;;;;;;12.12;86.07;100956.06;2057797;28;20095;-77
2022/03/02 01:47:06;;;;;;;8.45;4.40;;;;;;;12.15;85.98;100953.44;2060259;28;20077;-77
2022/03/02 01:48:30;;;;;;;7.30;3.58;;;;;;;12.19;85.95;100957.03;2052166;28;20054;-77
2022/03/02 01:49:53;;;;;;;7.60;3.67;;;;;;;12.20;86.04;100957.06;2065867;28;20054;-77
2022/03/02 01:51:15;;;;;;;7.97;3.55;;;;;;;12.22;86.02;100965.88;2063242;28;20085;-77
2022/03/02 01:52:37;;;;;;;7.72;3.70;;;;;;;12.24;85.86;100968.56;2068257;28;20056;-78
2022/03/02 01:54:00;;;;;;;6.97;3.92;;;;;;;12.25;85.73;100962.41;2064149;28;20058;-78
2022/03/02 01:55:22;;;;;;;7.18;3.00;;;;;;;12.25;85.65;100958.00;2062775;28;20146;-78
2022/03/02 01:56:44;;;;;;;6.40;3.80;;;;;;;12.25;85.58;100963.28;2054524;28;20043;-77
2022/03/02 01:58:06;;;;;;;11.05;4.80;;;;;;;12.26;85.60;100965.06;2059951;28;20058;-78
2022/03/02 01:59:29;;;;;;;8.75;3.47;;;;;;;12.25;85.63;100965.03;2062176;28;20054;-78
2022/03/02 02:00:52;;;;;;;5.78;2.80;;;;;;;12.25;85.66;100957.09;2059774;28;20061;-78
2022/03/02 02:02:15;;;;;;;6.25;2.30;;;;;;;12.25;85.69;100954.47;2062917;28;20072;-77
2022/03/02 02:03:39;;;;;;;5.28;2.03;;;;;;;12.26;85.70;100943.91;2060970;28;20050;-77
2022/03/02 02:05:02;;;;;;;4.43;1.42;;;;;;;12.24;85.77;100942.97;2062549;28;20100;-77
2022/03/02 02:06:24;;;;;;;4.93;1.70;;;;;;;12.22;85.71;100938.53;2062566;28;20148;-77
2022/03/02 02:07:48;;;;;;;2.25;1.20;;;;;;;12.21;85.71;100934.09;2065399;28;20100;-76
2022/03/02 02:09:09;;;;;;;2.58;1.40;;;;;;;12.16;85.65;100925.22;2068981;28;20052;-77
2022/03/02 02:10:32;;;;;;;2.55;1.13;;;;;;;12.14;85.68;100919.03;2070459;28;20050;-77
2022/03/02 02:11:53;;;;;;;2.85;1.38;;;;;;;12.14;85.73;100919.03;2072826;28;20050;-77
2022/03/02 02:13:16;;;;;;;3.70;1.45;;;;;;;12.14;85.64;100919.91;2063206;28;20042;-77
2022/03/02 02:14:39;;;;;;;2.97;1.35;;;;;;;12.17;85.66;100924.34;2071720;28;20111;-77
2022/03/02 02:16:02;;;;;;;2.67;1.38;;;;;;;12.21;85.75;100918.22;2072000;28;20046;-77
2022/03/02 02:17:25;;;;;;;3.25;1.45;;;;;;;12.22;85.62;100925.28;2071984;28;20470;-77
2022/03/02 02:18:51;;;;;;;9.32;4.28;;;;;;;12.24;85.78;100918.25;2061117;28;20084;-77
2022/03/02 02:20:12;;;;;;;8.00;3.03;;;;;;;12.21;85.79;100923.50;2060550;28;20417;-76
2022/03/02 02:21:36;;;;;;;6.82;3.67;;;;;;;12.17;85.80;100919.06;2062471;28;20069;-77
2022/03/02 02:22:58;;;;;;;21.67;9.93;;;;;;;12.12;85.90;100924.31;2061770;28;20068;-77
2022/03/02 02:24:20;;;;;;;3.45;1.80;;;;;;;12.12;85.97;100926.97;2059735;28;20465;-77
2022/03/02 02:25:43;;;;;;;8.98;1.67;;;;;;;12.14;86.10;100922.56;2062380;28;20058;-76
2022/03/02 02:27:05;;;;;;;5.97;2.72;;;;;;;12.16;86.14;100933.16;2070329;28;20048;-77
2022/03/02 02:28:29;;;;;;;5.55;2.50;;;;;;;12.20;86.14;100927.94;2062902;28;20075;-77
2022/03/02 02:29:52;;;;;;;3.85;2.08;;;;;;;12.18;86.09;100929.69;2062105;28;20058;-77
2022/03/02 02:31:15;;;;;;;6.90;3.72;;;;;;;12.19;85.98;100930.56;2070623;28;20046;-77
2022/03/02 02:32:38;;;;;;;20.75;10.90;;;;;;;12.23;86.05;100927.06;2068543;28;20318;-77
2022/03/02 02:34:01;;;;;;;13.60;7.28;;;;;;;12.23;85.95;100929.72;2069819;28;20056;-77
2022/03/02 02:35:25;;;;;;;14.38;6.45;;;;;;;12.25;85.83;100928.00;2070463;28;20117;-77
2022/03/02 02:36:49;;;;;;;8.57;4.35;;;;;;;12.28;85.66;100928.00;2062534;28;20065;-77
2022/03/02 02:38:11;;;;;;;7.93;3.38;;;;;;;12.27;85.59;100924.47;2051628;28;20093;-78
2022/03/02 02:39:35;;;;;;;7.65;3.35;;;;;;;12.27;85.60;100929.75;2057358;28;20054;-77
2022/03/02 02:40:58;;;;;;;6.75;2.50;;;;;;;12.28;85.54;100923.59;2059806;28;20085;-77
2022/03/02 02:42:20;;;;;;;5.47;2.50;;;;;;;12.25;85.52;100920.94;2067931;28;20042;-76
2022/03/02 02:43:44;;;;;;;5.38;2.30;;;;;;;12.24;85.47;100910.31;2058412;28;20031;-76
2022/03/02 02:45:07;;;;;;;2.65;1.58;;;;;;;12.25;85.44;100906.81;2059932;28;20085;-77
2022/03/02 02:46:29;;;;;;;2.97;1.38;;;;;;;12.19;85.28;100906.75;2069762;28;20053;-77
2022/03/02 02:47:56;;;;;;;2.95;1.35;;;;;;;12.22;85.23;100904.13;2069580;28;20041;-77
2022/03/02 02:49:18;;;;;;;2.00;1.30;;;;;;;12.09;85.26;100900.44;2059372;28;20042;-77
2022/03/02 02:50:41;;;;;;;2.33;1.13;;;;;;;12.03;85.22;100886.25;2066056;28;20096;-77
2022/03/02 02:52:06;;;;;;;2.83;1.33;;;;;;;12.01;85.30;100880.09;2064764;28;20089;-77
2022/03/02 02:53:28;;;;;;;3.13;1.30;;;;;;;11.96;85.38;100878.25;2058964;28;20054;-77
2022/03/02 02:54:50;;;;;;;3.17;1.20;;;;;;;11.97;85.38;100879.16;2059298;28;20096;-77
2022/03/02 02:56:12;;;;;;;2.92;1.33;;;;;;;11.97;85.36;100872.09;2053975;28;20054;-76
2022/03/02 02:57:35;;;;;;;3.38;1.48;;;;;;;11.96;85.34;100870.31;2059452;28;20042;-76
2022/03/02 02:58:56;;;;;;;4.05;1.20;;;;;;;11.97;85.31;100874.75;2060848;28;20042;-77
2022/03/02 03:00:21;;;;;;;3.78;1.60;;;;;;;11.99;85.37;100866.84;2067535;28;20419;-76
2022/03/02 03:01:43;;;;;;;1.73;0.88;;;;;;;11.98;85.33;100875.63;2064584;28;20053;-76
2022/03/02 03:03:06;;;;;;;2.42;0.95;;;;;;;11.93;85.52;100887.94;2067639;28;20086;-76
2022/03/02 03:04:29;;;;;;;5.47;1.33;;;;;;;11.89;85.55;100881.69;2067322;28;20115;-77
2022/03/02 03:05:52;;;;;;;5.88;1.40;;;;;;;11.87;85.65;100877.28;2070239;28;20112;-77
2022/03/02 03:07:16;;;;;;;2.97;1.27;;;;;;;11.90;85.78;100877.28;2067888;28;20042;-77
2022/03/02 03:08:39;;;;;;;3.15;1.60;;;;;;;11.89;85.90;100881.69;2061227;28;20061;-76
2022/03/02 03:10:00;;;;;;;2.63;1.30;;;;;;;11.93;85.96;100877.34;2053974;28;20126;-77
2022/03/02 03:11:22;;;;;;;3.28;1.35;;;;;;;11.95;85.96;100876.47;2059361;28;20081;-76
2022/03/02 03:12:47;;;;;;;3.10;1.40;;;;;;;12.01;85.98;100870.41;2069844;28;20555;-77
2022/03/02 03:14:10;;;;;;;2.72;1.30;;;;;;;12.02;85.95;100871.25;2058034;28;20046;-77
2022/03/02 03:15:34;;;;;;;3.92;1.20;;;;;;;12.05;85.88;100873.94;2059330;28;20488;-76
2022/03/02 03:16:55;;;;;;;3.45;1.63;;;;;;;12.05;85.80;100871.31;2070106;28;20038;-77
2022/03/02 03:18:17;;;;;;;3.38;1.85;;;;;;;12.04;85.74;100864.22;2069954;28;20045;-76
2022/03/02 03:19:39;;;;;;;4.10;2.28;;;;;;;12.02;85.80;100865.97;2058532;28;20478;-76
2022/03/02 03:21:01;;;;;;;14.70;5.45;;;;;;;12.03;85.92;100862.44;2070318;28;20041;-75
2022/03/02 03:22:24;;;;;;;19.17;7.07;;;;;;;12.05;85.92;100864.25;2064075;28;20451;-75
2022/03/02 03:23:47;;;;;;;36.47;15.65;;;;;;;12.04;86.04;100862.47;2069270;28;20074;-77
2022/03/02 03:25:10;;;;;;;6.90;3.00;;;;;;;12.08;86.08;100866.91;2069629;28;20042;-76
2022/03/02 03:26:33;;;;;;;11.60;6.05;;;;;;;12.07;86.08;100856.34;2061780;28;20066;-76
2022/03/02 03:27:56;;;;;;;12.27;7.00;;;;;;;12.06;86.07;100866.03;2059556;28;20051;-76
2022/03/02 03:29:18;;;;;;;8.73;4.90;;;;;;;12.01;86.04;100858.91;2066533;28;20137;-76
2022/03/02 03:30:41;;;;;;;8.82;4.18;;;;;;;12.01;86.02;100864.22;2068338;28;20455;-76
2022/03/02 03:32:02;;;;;;;8.25;4.65;;;;;;;12.03;86.07;100857.16;2069888;28;20050;-76
2022/03/02 03:33:25;;;;;;;9.77;5.15;;;;;;;12.05;85.98;100853.66;2054802;28;20563;-75
2022/03/02 03:34:48;;;;;;;7.60;3.10;;;;;;;12.07;86.04;100840.47;2075821;28;20531;-76
2022/03/02 03:36:10;;;;;;;6.82;3.63;;;;;;;12.07;85.97;100844.00;2066674;28;20129;-75
2022/03/02 03:37:33;;;;;;;7.25;4.25;;;;;;;12.12;85.94;100844.94;2062050;28;20488;-75
2022/03/02 03:38:56;;;;;;;5.68;2.88;;;;;;;12.12;86.02;100839.63;2066136;28;20081;-75
2022/03/02 03:40:21;;;;;;;3.10;1.63;;;;;;;12.12;86.02;100842.28;2055141;28;20113;-75
2022/03/02 03:41:43;;;;;;;3.08;1.65;;;;;;;12.10;85.84;100848.41;2067705;28;20567;-75
2022/03/02 03:43:06;;;;;;;3.58;1.98;;;;;;;12.07;85.96;100849.28;2069905;28;20531;-76
2022/03/02 03:44:27;;;;;;;7.22;4.00;;;;;;;12.07;86.09;100844.00;2059778;28;20046;-75
2022/03/02 03:45:50;;;;;;;5.80;3.72;;;;;;;12.06;86.04;100851.91;2078139;28;20053;-76
2022/03/02 03:47:13;;;;;;;7.60;3.70;;;;;;;12.03;86.10;100851.88;2066873;28;20046;-76
2022/03/02 03:48:36;;;;;;;8.38;3.70;;;;;;;12.01;86.29;100838.66;2077780;28;20046;-75
2022/03/02 03:49:58;;;;;;;41.05;22.55;;;;;;;12.01;86.30;100835.09;2050747;28;20047;-75
2022/03/02 03:51:21;;;;;;;7.88;3.30;;;;;;;12.03;86.38;100836.00;2059568;28;20093;-76
2022/03/02 03:52:44;;;;;;;5.13;2.50;;;;;;;12.06;86.42;100826.34;2077893;28;20065;-76
2022/03/02 03:54:08;;;;;;;4.20;1.98;;;;;;;12.04;86.32;100822.78;2060766;28;20046;-76
2022/03/02 03:55:31;;;;;;;3.65;1.92;;;;;;;12.03;86.30;100822.75;2059437;28;20081;-76
2022/03/02 03:56:53;;;;;;;4.45;2.30;;;;;;;12.04;86.34;100816.59;2067773;28;20137;-76
2022/03/02 03:58:16;;;;;;;4.97;2.25;;;;;;;12.04;86.50;100816.59;2052448;28;20050;-76
2022/03/02 03:59:39;;;;;;;6.43;2.78;;;;;;;12.04;86.30;100813.97;2064789;28;20479;-76
2022/03/02 04:01:01;;;;;;;7.28;3.13;;;;;;;12.03;86.24;100814.81;2060831;28;20042;-76
2022/03/02 04:02:22;;;;;;;5.13;2.33;;;;;;;12.04;86.32;100817.50;2067149;28;20513;-75
2022/03/02 04:03:45;;;;;;;4.07;1.83;;;;;;;12.03;86.01;100812.19;2059859;28;20043;-75
2022/03/02 04:05:08;;;;;;;4.03;2.03;;;;;;;12.04;86.15;100813.97;2059023;28;20057;-75
2022/03/02 04:06:31;;;;;;;3.58;1.58;;;;;;;12.02;86.12;100807.75;2056328;28;20034;-75
2022/03/02 04:07:55;;;;;;;1.95;1.05;;;;;;;12.04;86.12;100800.72;2067034;28;20058;-76
2022/03/02 04:09:17;;;;;;;5.38;1.83;;;;;;;11.98;86.11;100802.44;2062995;28;20046;-75
2022/03/02 04:10:40;;;;;;;2.78;1.48;;;;;;;11.98;86.13;100798.91;2069838;28;20053;-76
2022/03/02 04:12:02;;;;;;;2.58;1.17;;;;;;;11.96;86.14;100793.59;2055841;28;20369;-75
2022/03/02 04:13:25;;;;;;;2.30;1.10;;;;;;;11.94;86.32;100792.72;2051083;28;20050;-77
2022/03/02 04:14:46;;;;;;;2.20;1.00;;;;;;;11.94;86.22;100794.47;2058994;28;20107;-76
2022/03/02 04:16:09;;;;;;;3.40;1.30;;;;;;;11.95;86.42;100788.28;2070538;28;20125;-75
2022/03/02 04:17:32;;;;;;;1.45;0.98;;;;;;;11.91;86.40;100790.03;2064212;28;20492;-75
2022/03/02 04:18:55;;;;;;;3.08;1.48;;;;;;;11.90;86.41;100787.34;2053559;28;20146;-76
2022/03/02 04:20:17;;;;;;;3.33;1.20;;;;;;;11.89;86.50;100790.88;2058860;28;20382;-76
2022/03/02 04:21:40;;;;;;;8.73;3.42;;;;;;;11.87;86.63;100792.63;2053493;28;20444;-76
2022/03/02 04:23:05;;;;;;;8.82;4.07;;;;;;;11.88;86.69;100779.41;2065828;28;20116;-76
2022/03/02 04:24:26;;;;;;;10.10;5.35;;;;;;;11.85;86.63;100768.81;2069349;28;20053;-76
2022/03/02 04:25:49;;;;;;;9.35;3.88;;;;;;;11.88;86.74;100774.09;2073296;28;20035;-75
2022/03/02 04:27:10;;;;;;;7.40;3.13;;;;;;;11.90;86.79;100767.09;2077786;28;20045;-76
2022/03/02 04:28:32;;;;;;;7.70;4.45;;;;;;;11.92;86.90;100775.03;2071123;28;20038;-76
2022/03/02 04:29:55;;;;;;;7.70;4.05;;;;;;;11.93;86.89;100779.47;2061504;28;20057;-75
2022/03/02 04:31:16;;;;;;;6.95;3.65;;;;;;;11.93;86.89;100782.13;2068089;28;20076;-75
2022/03/02 04:32:39;;;;;;;6.63;2.90;;;;;;;11.93;86.80;100782.13;2069265;28;20092;-76
2022/03/02 04:34:02;;;;;;;4.00;2.50;;;;;;;11.94;86.85;100784.78;2069361;28;20042;-76
2022/03/02 04:35:25;;;;;;;3.72;1.88;;;;;;;11.91;86.91;100781.19;2069234;28;20049;-76
2022/03/02 04:36:48;;;;;;;6.03;1.60;;;;;;;11.90;86.90;100779.41;2064104;28;20043;-75
2022/03/02 04:38:12;;;;;;;2.65;1.48;;;;;;;11.92;86.94;100782.97;2063425;28;20519;-75
2022/03/02 04:39:35;;;;;;;2.08;1.25;;;;;;;11.88;86.90;100778.53;2053257;28;20055;-76
2022/03/02 04:40:58;;;;;;;2.72;1.30;;;;;;;11.88;86.87;100779.41;2053294;28;20101;-76
2022/03/02 04:42:20;;;;;;;2.30;1.02;;;;;;;11.87;86.76;100777.66;2065014;28;20539;-76
2022/03/02 04:43:43;;;;;;;1.65;0.90;;;;;;;11.87;86.76;100779.41;2065376;28;20069;-76
2022/03/02 04:45:07;;;;;;;2.10;0.85;;;;;;;11.88;86.84;100783.84;2062955;28;20116;-75
2022/03/02 04:46:30;;;;;;;1.60;0.85;;;;;;;11.84;86.66;100777.59;2067127;28;20586;-76
2022/03/02 04:47:53;;;;;;;3.42;1.00;;;;;;;11.85;86.71;100773.19;2071247;28;20056;-75
2022/03/02 04:49:17;;;;;;;1.67;0.90;;;;;;;11.87;86.74;100775.00;2068187;28;20084;-76
2022/03/02 04:50:40;;;;;;;1.73;0.85;;;;;;;11.87;86.71;100769.72;2063547;28;20046;-75
2022/03/02 04:52:03;;;;;;;1.80;0.90;;;;;;;11.85;86.75;100755.56;2071299;28;20088;-76
2022/03/02 04:53:25;;;;;;;0.90;0.80;;;;;;;11.87;86.76;100750.31;2061654;28;20142;-76
2022/03/02 04:56:27;;;;;;;1.63;0.80;;;;;;;11.83;86.76;100749.38;2071609;28;20072;-75
2022/03/02 04:57:54;;;;;;;2.20;0.90;;;;;;;11.86;86.78;100759.13;2063036;28;20054;-75
2022/03/02 04:59:15;;;;;;;1.15;0.70;;;;;;;11.83;86.81;100744.09;2066045;28;20166;-76
2022/03/02 05:00:38;;;;;;;3.08;0.80;;;;;;;11.85;86.80;100749.41;2070400;28;20050;-76
2022/03/02 05:02:00;;;;;;;1.88;0.93;;;;;;;11.86;86.79;100744.13;2063104;28;20050;-76
2022/03/02 05:03:22;;;;;;;4.90;1.00;;;;;;;11.86;86.83;100741.50;2070226;28;20104;-76
2022/03/02 05:04:44;;;;;;;2.80;0.80;;;;;;;11.89;86.86;100736.22;2065522;28;20125;-75
2022/03/02 05:06:06;;;;;;;2.03;0.93;;;;;;;11.89;86.76;100735.31;2068592;28;20046;-75
2022/03/02 05:07:27;;;;;;;1.38;0.73;;;;;;;11.88;86.82;100742.38;2062600;28;20097;-75
2022/03/02 05:08:51;;;;;;;1.73;0.80;;;;;;;11.84;86.77;100735.28;2067555;28;20132;-76
2022/03/02 05:10:14;;;;;;;3.78;1.48;;;;;;;11.83;86.91;100733.50;2071079;28;20083;-76
2022/03/02 05:11:37;;;;;;;11.18;4.03;;;;;;;11.83;87.00;100722.94;2062732;28;20152;-75
2022/03/02 05:13:01;;;;;;;9.52;4.43;;;;;;;11.85;87.14;100728.25;2062837;28;20050;-75
2022/03/02 05:14:23;;;;;;;10.48;2.97;;;;;;;11.86;87.12;100727.38;2067702;28;20431;-76
2022/03/02 05:15:45;;;;;;;8.60;3.30;;;;;;;11.86;87.25;100733.56;2070605;28;20065;-75
2022/03/02 05:17:06;;;;;;;10.07;3.75;;;;;;;11.88;87.37;100739.72;2070938;28;20500;-76
2022/03/02 05:18:29;;;;;;;2.58;1.30;;;;;;;11.92;87.39;100738.00;2059423;28;20157;-75
2022/03/02 05:19:52;;;;;;;2.35;1.08;;;;;;;11.91;87.38;100733.59;2068401;28;20096;-76
2022/03/02 05:21:15;;;;;;;3.40;1.02;;;;;;;11.91;87.32;100725.66;2059874;28;20113;-76
2022/03/02 05:22:38;;;;;;;2.42;0.93;;;;;;;11.84;87.33;100730.00;2055069;28;20046;-76
2022/03/02 05:24:02;;;;;;;1.90;1.30;;;;;;;11.82;87.28;100725.53;2070845;28;20084;-75
2022/03/02 05:25:25;;;;;;;1.23;0.90;;;;;;;11.76;86.98;100731.66;2072483;28;20516;-76
2022/03/02 05:26:47;;;;;;;2.25;0.77;;;;;;;11.76;87.20;100726.38;2062829;28;20042;-75
2022/03/02 05:28:10;;;;;;;2.00;1.13;;;;;;;11.78;87.23;100731.69;2062732;28;20042;-76
2022/03/02 05:29:31;;;;;;;2.92;1.30;;;;;;;11.79;87.25;100742.28;2071537;28;20049;-75
2022/03/02 05:30:54;;;;;;;1.27;0.80;;;;;;;11.82;87.25;100739.66;2070776;28;20053;-76
2022/03/02 05:32:15;;;;;;;2.58;1.10;;;;;;;11.86;87.21;100741.50;2062753;28;20074;-76
2022/03/02 05:33:38;;;;;;;2.63;1.30;;;;;;;11.87;87.20;100727.41;2066998;28;20053;-76
2022/03/02 05:35:00;;;;;;;2.10;1.08;;;;;;;11.88;87.23;100718.56;2070808;28;20049;-76
2022/03/02 05:36:23;;;;;;;3.80;1.90;;;;;;;11.88;87.23;100715.91;2070470;28;20041;-75
2022/03/02 05:37:45;;;;;;;3.85;1.50;;;;;;;11.88;87.26;100721.22;2059685;28;20049;-76
2022/03/02 05:39:08;;;;;;;3.88;1.65;;;;;;;11.89;87.36;100719.44;2054602;28;20043;-76
2022/03/02 05:40:31;;;;;;;2.38;1.55;;;;;;;11.86;87.37;100711.50;2060250;28;20188;-75
2022/03/02 05:41:52;;;;;;;2.13;1.23;;;;;;;11.87;87.39;100719.47;2054816;28;20051;-76
2022/03/02 05:43:14;;;;;;;2.97;1.70;;;;;;;11.87;87.47;100723.88;2067519;28;20067;-75
2022/03/02 05:44:37;;;;;;;3.10;1.73;;;;;;;11.88;87.53;100721.22;2059745;28;20125;-76
2022/03/02 05:45:59;;;;;;;4.07;1.90;;;;;;;11.88;87.68;100729.13;2060246;28;20046;-75
2022/03/02 05:47:20;;;;;;;3.05;1.90;;;;;;;11.89;87.69;100727.38;2057145;28;20428;-75
2022/03/02 05:48:43;;;;;;;5.80;1.70;;;;;;;11.89;87.74;100736.22;2067931;28;20435;-75
2022/03/02 05:50:06;;;;;;;5.97;1.80;;;;;;;11.90;87.98;100742.38;2070616;28;20076;-74
2022/03/02 05:51:30;;;;;;;9.73;2.65;;;;;;;11.91;88.19;100742.41;2062788;28;20050;-75
2022/03/02 05:52:52;;;;;;;8.05;3.83;;;;;;;11.95;88.01;100754.78;2067399;28;20057;-75
2022/03/02 05:54:17;;;;;;;13.57;6.32;;;;;;;12.02;88.14;100760.13;2077992;28;20037;-75
2022/03/02 05:55:39;;;;;;;15.30;6.63;;;;;;;12.02;87.92;100754.84;2064531;28;20054;-75
2022/03/02 05:57:01;;;;;;;10.38;5.93;;;;;;;12.02;88.06;100761.03;2067409;28;20049;-75
2022/03/02 05:58:25;;;;;;;9.82;4.50;;;;;;;12.02;88.01;100757.47;2062530;28;20062;-75
2022/03/02 05:59:48;;;;;;;8.88;4.25;;;;;;;12.02;87.99;100741.59;2071026;28;20038;-76
2022/03/02 06:01:12;;;;;;;8.02;4.80;;;;;;;11.98;87.83;100738.06;2056984;28;20043;-75
2022/03/02 06:02:34;;;;;;;6.85;3.53;;;;;;;11.97;87.83;100741.56;2062423;28;20307;-73
2022/03/02 06:03:57;;;;;;;8.57;3.15;;;;;;;11.97;87.83;100741.56;2078519;28;20491;-76
2022/03/02 06:05:20;;;;;;;4.93;2.75;;;;;;;11.97;87.59;100747.75;2067556;28;20050;-76
2022/03/02 06:06:42;;;;;;;5.38;2.80;;;;;;;12.01;87.62;100747.81;2062742;28;20435;-76
2022/03/02 06:08:07;;;;;;;6.28;3.25;;;;;;;12.03;87.55;100757.50;2054641;28;20079;-76
2022/03/02 06:09:32;;;;;;;6.25;2.58;;;;;;;12.06;87.39;100762.84;2055550;28;20396;-76
2022/03/02 06:10:54;;;;;;;5.43;3.20;;;;;;;12.04;87.41;100759.28;2061097;28;20042;-76
2022/03/02 06:12:18;;;;;;;4.88;3.03;;;;;;;12.07;87.58;100764.63;2062510;28;20488;-76
2022/03/02 06:13:42;;;;;;;5.75;2.97;;;;;;;12.07;87.54;100769.91;2059460;28;20154;-75
2022/03/02 06:15:05;;;;;;;7.72;4.13;;;;;;;12.08;87.54;100771.66;2062546;28;20085;-75
2022/03/02 06:16:28;;;;;;;6.35;3.33;;;;;;;12.08;87.51;100771.66;2066765;28;20057;-75
2022/03/02 06:17:51;;;;;;;4.32;2.35;;;;;;;12.09;87.58;100761.97;2069873;28;20042;-75
2022/03/02 06:19:15;;;;;;;5.45;2.03;;;;;;;12.07;87.55;100761.09;2062486;28;20057;-75
2022/03/02 06:20:37;;;;;;;3.42;1.27;;;;;;;12.02;87.62;100752.19;2067928;28;20037;-75
2022/03/02 06:22:01;;;;;;;8.60;3.72;;;;;;;12.00;87.53;100743.38;2068128;28;20076;-75
2022/03/02 06:23:24;;;;;;;6.10;3.47;;;;;;;11.92;87.61;100733.59;2069912;28;20049;-76
2022/03/02 06:24:51;;;;;;;6.20;3.28;;;;;;;11.88;87.61;100731.78;2061772;28;20053;-76
2022/03/02 06:26:15;;;;;;;4.10;2.30;;;;;;;11.81;87.69;100718.50;2065333;28;20527;-75